Time;durP1;ratioP1;P1;durP2;ratioP2;P2;SDS_P1;SDS_P2;PMS_P1;PMS_P2;Temp;Humidity;BMP_temperature;BMP_pressure;BME280_temperature;BME280_humidity;BME280_pressure;Samples;Min_cycle;Max_cycle;Signal;HPM_P1;HPM_P2
2023/10/04 00:02:19;;;;;;;;;;;;;;;12.28;100.00;102413.03;5028776;28;19925;-71
2023/10/04 00:04:45;;;;;;;;;;;;;;;12.26;100.00;102409.56;5029857;28;19966;-71
2023/10/04 00:07:10;;;;;;;;;;;;;;;12.27;100.00;102405.91;5023763;28;19921;-71
2023/10/04 00:09:36;;;;;;;;;;;;;;;12.25;100.00;102423.97;5027180;28;19921;-71
2023/10/04 00:12:01;;;;;;;;;;;;;;;12.23;100.00;102421.41;5033572;28;19927;-71
2023/10/04 00:14:27;;;;;;;;;;;;;;;12.17;100.00;102426.28;5030535;28;19920;-71
2023/10/04 00:16:55;;;;;;;;;;;;;;;12.10;100.00;102431.16;5028313;28;19971;-71
2023/10/04 00:19:20;;;;;;;;;;;;;;;12.13;100.00;102429.16;5030990;28;19928;-70
2023/10/04 00:21:45;;;;;;;;;;;;;;;12.09;100.00;102434.78;5027808;28;19921;-71
2023/10/04 00:24:10;;;;;;;;;;;;;;;12.13;100.00;102437.22;5009267;28;19940;-71
2023/10/04 00:26:36;;;;;;;;;;;;;;;12.15;100.00;102437.13;5028461;28;20030;-70
2023/10/04 00:29:01;;;;;;;;;;;;;;;12.19;100.00;102432.41;5024945;28;20355;-71
2023/10/04 00:31:28;;;;;;;;;;;;;;;12.22;100.00;102432.25;5028314;28;19918;-70
2023/10/04 00:33:53;;;;;;;;;;;;;;;12.25;100.00;102438.34;5027385;28;19928;-70
2023/10/04 00:36:21;;;;;;;;;;;;;;;12.23;100.00;102434.84;5030729;28;19925;-71
2023/10/04 00:38:46;;;;;;;;;;;;;;;12.31;100.00;102439.78;5029858;28;19925;-71
2023/10/04 00:41:12;;;;;;;;;;;;;;;12.32;100.00;102435.25;5033129;28;19962;-71
2023/10/04 00:43:50;;;;;;;;;;;;;;;12.29;100.00;102433.63;5022914;28;19967;-71
2023/10/04 00:46:18;;;;;;;;;;;;;;;12.29;100.00;102434.50;5014459;28;19925;-71
2023/10/04 00:48:44;;;;;;;;;;;;;;;12.26;100.00;102447.25;5031703;28;19921;-71
2023/10/04 00:51:12;;;;;;;;;;;;;;;12.30;100.00;102436.22;5025750;28;19972;-71
2023/10/04 00:53:37;;;;;;;;;;;;;;;12.21;100.00;102436.78;5025259;28;19931;-73
2023/10/04 00:56:03;;;;;;;;;;;;;;;12.26;100.00;102442.75;5006857;28;19925;-71
2023/10/04 00:58:28;;;;;;;;;;;;;;;12.25;100.00;102445.53;5032111;28;20027;-71
2023/10/04 01:00:53;;;;;;;;;;;;;;;12.21;100.00;102450.25;5025711;28;19929;-71
2023/10/04 01:03:24;;;;;;;;;;;;;;;12.24;100.00;102446.47;5029263;28;19967;-71
2023/10/04 01:05:51;;;;;;;;;;;;;;;12.14;100.00;102455.13;5021833;28;19928;-71
2023/10/04 01:08:22;;;;;;;;;;;;;;;12.12;100.00;102453.47;5023129;28;19924;-70
2023/10/04 01:10:49;;;;;;;;;;;;;;;12.08;100.00;102457.28;5008651;28;19927;-70
2023/10/04 01:13:21;;;;;;;;;;;;;;;12.07;100.00;102458.25;5010086;28;19951;-71
2023/10/04 01:15:49;;;;;;;;;;;;;;;12.07;100.00;102453.75;5027830;28;20051;-70
2023/10/04 01:18:16;;;;;;;;;;;;;;;12.13;100.00;102456.09;5030554;28;20375;-71
2023/10/04 01:20:41;;;;;;;;;;;;;;;12.11;100.00;102452.59;5029185;28;19979;-71
2023/10/04 01:23:09;;;;;;;;;;;;;;;12.08;100.00;102462.66;5025848;28;20425;-71
2023/10/04 01:25:35;;;;;;;;;;;;;;;12.05;100.00;102458.34;5010239;28;19931;-71
2023/10/04 01:28:01;;;;;;;;;;;;;;;12.10;100.00;102461.63;5008611;28;19925;-70
2023/10/04 01:30:27;;;;;;;;;;;;;;;12.09;100.00;102459.03;5023900;28;19966;-71
2023/10/04 01:32:53;;;;;;;;;;;;;;;12.09;100.00;102462.59;5027195;28;20326;-71
2023/10/04 01:35:21;;;;;;;;;;;;;;;12.08;100.00;102468.94;5022629;28;19972;-72
2023/10/04 01:37:46;;;;;;;;;;;;;;;12.07;100.00;102464.50;5010394;28;19924;-71
2023/10/04 01:40:12;;;;;;;;;;;;;;;12.09;100.00;102467.97;5024955;28;20026;-71
2023/10/04 01:42:40;;;;;;;;;;;;;;;12.06;100.00;102465.47;5009762;28;20363;-71
2023/10/04 01:45:05;;;;;;;;;;;;;;;12.06;100.00;102472.66;5024641;28;19921;-71
2023/10/04 01:47:30;;;;;;;;;;;;;;;11.97;100.00;102463.25;5025164;28;19952;-71
2023/10/04 01:49:55;;;;;;;;;;;;;;;11.90;100.00;102468.13;5024407;28;19959;-72
2023/10/04 01:52:21;;;;;;;;;;;;;;;11.92;100.00;102473.44;5026974;28;20062;-71
2023/10/04 01:54:46;;;;;;;;;;;;;;;11.99;100.00;102464.06;5020605;28;20276;-71
2023/10/04 01:57:11;;;;;;;;;;;;;;;11.98;100.00;102473.06;5020605;28;19928;-71
2023/10/04 01:59:36;;;;;;;;;;;;;;;12.00;100.00;102477.47;5003556;28;19920;-71
2023/10/04 02:02:08;;;;;;;;;;;;;;;11.95;100.00;102471.44;5025395;28;19925;-71
2023/10/04 02:04:36;;;;;;;;;;;;;;;11.99;100.00;102466.78;5025560;28;19927;-71
2023/10/04 02:07:01;;;;;;;;;;;;;;;12.00;100.00;102474.78;5022309;28;19922;-72
2023/10/04 02:09:26;;;;;;;;;;;;;;;12.04;100.00;102470.06;5011706;28;20380;-71
2023/10/04 02:11:51;;;;;;;;;;;;;;;12.01;100.00;102467.56;5011249;28;20362;-70
2023/10/04 02:14:17;;;;;;;;;;;;;;;12.04;100.00;102466.53;5026150;28;20391;-70
2023/10/04 02:16:42;;;;;;;;;;;;;;;12.04;100.00;102470.06;5027405;28;19925;-70
2023/10/04 02:19:07;;;;;;;;;;;;;;;12.04;100.00;102471.91;5029511;28;20027;-71
2023/10/04 02:21:33;;;;;;;;;;;;;;;12.03;100.00;102467.47;5011493;28;19964;-70
2023/10/04 02:23:58;;;;;;;;;;;;;;;12.05;100.00;102457.50;5012282;28;19932;-71
2023/10/04 02:26:24;;;;;;;;;;;;;;;12.14;100.00;102459.63;5027925;28;20580;-70
2023/10/04 02:28:52;;;;;;;;;;;;;;;12.08;100.00;102457.28;5027268;28;19940;-71
2023/10/04 02:31:19;;;;;;;;;;;;;;;12.09;100.00;102467.97;5019108;28;19958;-71
2023/10/04 02:33:45;;;;;;;;;;;;;;;12.11;100.00;102459.81;5022459;28;19917;-71
2023/10/04 02:36:11;;;;;;;;;;;;;;;12.13;100.00;102464.16;5030879;28;20006;-71
2023/10/04 02:38:36;;;;;;;;;;;;;;;12.18;100.00;102460.34;5031544;28;19928;-70
2023/10/04 02:41:03;;;;;;;;;;;;;;;12.17;100.00;102462.13;5026060;28;19931;-70
2023/10/04 02:43:28;;;;;;;;;;;;;;;12.23;100.00;102471.69;5029947;28;19983;-70
2023/10/04 02:45:53;;;;;;;;;;;;;;;12.17;100.00;102470.22;5029028;28;20019;-71
2023/10/04 02:48:23;;;;;;;;;;;;;;;12.15;100.00;102467.63;5026761;28;19931;-70
2023/10/04 02:50:49;;;;;;;;;;;;;;;12.16;100.00;102465.78;5027361;28;19967;-71
2023/10/04 02:53:17;;;;;;;;;;;;;;;12.19;100.00;102459.34;5028181;28;19917;-71
2023/10/04 02:55:42;;;;;;;;;;;;;;;12.24;100.00;102460.84;5032250;28;19963;-71
2023/10/04 02:58:08;;;;;;;;;;;;;;;12.22;100.00;102462.75;5030841;28;20372;-70
2023/10/04 03:00:35;;;;;;;;;;;;;;;12.27;100.00;102463.34;5027510;28;19968;-71
2023/10/04 03:03:01;;;;;;;;;;;;;;;12.21;100.00;102466.41;5033183;28;19925;-71
2023/10/04 03:05:29;;;;;;;;;;;;;;;12.20;100.00;102477.22;5028507;28;19939;-70
2023/10/04 03:07:55;;;;;;;;;;;;;;;12.16;100.00;102468.47;5027864;28;19928;-71
2023/10/04 03:10:24;;;;;;;;;;;;;;;11.91;100.00;102434.03;5028493;28;20315;-71
2023/10/04 03:12:53;;;;;;;;;;;;;;;12.09;100.00;102467.09;5030778;28;19925;-71
2023/10/04 03:15:21;;;;;;;;;;;;;;;12.09;100.00;102469.78;5029276;28;19939;-71
2023/10/04 03:17:47;;;;;;;;;;;;;;;12.07;100.00;102480.66;5027869;28;19924;-71
2023/10/04 03:20:20;;;;;;;;;;;;;;;12.04;100.00;102488.91;5028622;28;20375;-71
2023/10/04 03:22:46;;;;;;;;;;;;;;;12.03;100.00;102506.03;5027812;28;19921;-71
2023/10/04 03:25:11;;;;;;;;;;;;;;;11.98;100.00;102498.19;5025101;28;19925;-70
2023/10/04 03:27:37;;;;;;;;;;;;;;;11.96;100.00;102493.81;5028139;28;19982;-71
2023/10/04 03:30:05;;;;;;;;;;;;;;;11.87;100.00;102492.53;5026887;28;19925;-70
2023/10/04 03:32:30;;;;;;;;;;;;;;;11.78;100.00;102491.25;5027143;28;19924;-71
2023/10/04 03:34:55;;;;;;;;;;;;;;;11.81;100.00;102507.22;5026639;28;19946;-71
2023/10/04 03:37:29;;;;;;;;;;;;;;;11.78;100.00;102506.53;5027166;28;19956;-71
2023/10/04 03:39:54;;;;;;;;;;;;;;;11.74;100.00;102505.81;5029000;28;20490;-70
2023/10/04 03:42:19;;;;;;;;;;;;;;;11.67;100.00;102508.00;5012885;28;20516;-71
2023/10/04 03:44:47;;;;;;;;;;;;;;;11.68;100.00;102496.28;5026828;28;20377;-71
2023/10/04 03:47:12;;;;;;;;;;;;;;;11.57;100.00;102492.44;5029764;28;19928;-71
2023/10/04 03:49:39;;;;;;;;;;;;;;;11.51;100.00;102496.38;5012312;28;19912;-71
2023/10/04 03:52:04;;;;;;;;;;;;;;;11.53;100.00;102495.31;5026873;28;19921;-72
2023/10/04 03:54:30;;;;;;;;;;;;;;;11.52;100.00;102498.09;5008525;28;19944;-71
2023/10/04 03:56:55;;;;;;;;;;;;;;;11.51;100.00;102509.81;5009716;28;20357;-71
2023/10/04 03:59:22;;;;;;;;;;;;;;;11.47;100.00;102506.41;5026450;28;20394;-70
2023/10/04 04:01:47;;;;;;;;;;;;;;;11.42;100.00;102502.25;5029397;28;19924;-71
2023/10/04 04:04:14;;;;;;;;;;;;;;;11.35;100.00;102505.25;5004380;28;19983;-71
2023/10/04 04:06:40;;;;;;;;;;;;;;;11.34;100.00;102500.81;5031899;28;19964;-71
2023/10/04 04:09:08;;;;;;;;;;;;;;;11.29;100.00;102499.34;5026129;28;20305;-70
2023/10/04 04:11:33;;;;;;;;;;;;;;;11.23;100.00;102498.72;5027551;28;19944;-72
2023/10/04 04:13:59;;;;;;;;;;;;;;;11.23;100.00;102497.88;5029632;28;20305;-71
2023/10/04 04:16:24;;;;;;;;;;;;;;;10.92;100.00;102449.31;5028693;28;20296;-70
2023/10/04 04:18:54;;;;;;;;;;;;;;;11.22;100.00;102501.50;5028276;28;20387;-70
2023/10/04 04:21:20;;;;;;;;;;;;;;;11.17;100.00;102498.19;5029348;28;19972;-71
2023/10/04 04:23:46;;;;;;;;;;;;;;;11.18;100.00;102499.94;5028730;28;20506;-70
2023/10/04 04:26:11;;;;;;;;;;;;;;;11.08;100.00;102502.25;5030420;28;19923;-70
2023/10/04 04:28:36;;;;;;;;;;;;;;;11.12;100.00;102497.56;5029476;28;19921;-71
2023/10/04 04:31:05;;;;;;;;;;;;;;;11.07;100.00;102500.50;5028198;28;19921;-70
2023/10/04 04:33:31;;;;;;;;;;;;;;;11.06;100.00;102501.47;5027032;28;20153;-74
2023/10/04 04:36:09;;;;;;;;;;;;;;;11.02;100.00;102499.88;5028917;28;19920;-69
2023/10/04 04:38:38;;;;;;;;;;;;;;;11.06;100.00;102499.63;5025127;28;20102;-69
2023/10/04 04:41:06;;;;;;;;;;;;;;;11.04;100.00;102492.63;5028087;28;19984;-70
2023/10/04 04:43:36;;;;;;;;;;;;;;;10.93;100.00;102483.28;5027432;28;19924;-70
2023/10/04 04:46:02;;;;;;;;;;;;;;;10.93;100.00;102482.44;5008672;28;21368;-71
2023/10/04 04:48:29;;;;;;;;;;;;;;;10.97;100.00;102489.41;5025129;28;19921;-70
2023/10/04 04:50:55;;;;;;;;;;;;;;;10.95;100.00;102486.78;5020136;28;19932;-71
2023/10/04 04:53:24;;;;;;;;;;;;;;;10.89;100.00;102484.41;5025825;28;19928;-71
2023/10/04 04:55:50;;;;;;;;;;;;;;;10.85;100.00;102477.47;5024299;28;19931;-70
2023/10/04 04:58:15;;;;;;;;;;;;;;;10.80;100.00;102482.22;5007027;28;19925;-70
2023/10/04 05:00:44;;;;;;;;;;;;;;;10.75;100.00;102479.75;5027002;28;20875;-71
2023/10/04 05:03:09;;;;;;;;;;;;;;;10.72;100.00;102479.94;5021345;28;19944;-69
2023/10/04 05:05:34;;;;;;;;;;;;;;;10.71;100.00;102488.94;5028185;28;19921;-71
2023/10/04 05:08:00;;;;;;;;;;;;;;;10.70;100.00;102494.38;5024868;28;19932;-70
2023/10/04 05:10:29;;;;;;;;;;;;;;;10.67;100.00;102486.47;5021354;28;19947;-70
2023/10/04 05:12:55;;;;;;;;;;;;;;;10.65;100.00;102498.16;5022161;28;20016;-70
2023/10/04 05:15:31;;;;;;;;;;;;;;;10.62;100.00;102513.59;5029054;28;19942;-70
2023/10/04 05:17:57;;;;;;;;;;;;;;;10.61;100.00;102509.16;5024743;28;20716;-70
2023/10/04 05:20:24;;;;;;;;;;;;;;;10.59;100.00;102517.31;5010208;28;19924;-71
2023/10/04 05:22:50;;;;;;;;;;;;;;;10.56;100.00;102524.63;5026331;28;19932;-70
2023/10/04 05:25:15;;;;;;;;;;;;;;;10.58;100.00;102529.00;5023498;28;19924;-71
2023/10/04 05:27:41;;;;;;;;;;;;;;;10.54;100.00;102545.34;5024200;28;19921;-71
2023/10/04 05:30:07;;;;;;;;;;;;;;;10.52;100.00;102548.09;5023770;28;19973;-71
2023/10/04 05:32:33;;;;;;;;;;;;;;;10.55;100.00;102547.97;5010253;28;19921;-71
2023/10/04 05:34:58;;;;;;;;;;;;;;;10.52;100.00;102537.38;5025509;28;19921;-71
2023/10/04 05:37:23;;;;;;;;;;;;;;;10.46;100.00;102540.34;5031439;28;19920;-71
2023/10/04 05:39:48;;;;;;;;;;;;;;;10.47;100.00;102537.56;5027360;28;19937;-70
2023/10/04 05:42:14;;;;;;;;;;;;;;;10.48;100.00;102531.25;5021305;28;19928;-71
2023/10/04 05:44:39;;;;;;;;;;;;;;;10.44;100.00;102535.06;5022203;28;19920;-70
2023/10/04 05:47:05;;;;;;;;;;;;;;;10.40;100.00;102540.66;5025546;28;19987;-70
2023/10/04 05:49:31;;;;;;;;;;;;;;;10.41;100.00;102551.34;5026359;28;20465;-70
2023/10/04 05:51:56;;;;;;;;;;;;;;;10.45;100.00;102550.25;5025074;28;19921;-71
2023/10/04 05:54:21;;;;;;;;;;;;;;;10.49;100.00;102549.13;5007037;28;19960;-70
2023/10/04 05:56:46;;;;;;;;;;;;;;;10.49;100.00;102561.69;5030132;28;20063;-69
2023/10/04 05:59:13;;;;;;;;;;;;;;;10.49;100.00;102567.91;5026664;28;20059;-70
2023/10/04 06:01:38;;;;;;;;;;;;;;;10.45;100.00;102569.03;5023455;28;19997;-71
2023/10/04 06:04:05;;;;;;;;;;;;;;;10.47;100.00;102569.81;5005159;28;19955;-70
2023/10/04 06:06:32;;;;;;;;;;;;;;;10.46;100.00;102564.53;5005380;28;19928;-71
2023/10/04 06:08:58;;;;;;;;;;;;;;;10.53;100.00;102573.13;5006796;28;20043;-71
2023/10/04 06:11:24;;;;;;;;;;;;;;;10.53;100.00;102567.75;5020731;28;20063;-71
2023/10/04 06:13:49;;;;;;;;;;;;;;;10.56;100.00;102570.28;5023991;28;20749;-71
2023/10/04 06:16:18;;;;;;;;;;;;;;;10.58;100.00;102576.47;5023694;28;19921;-71
2023/10/04 06:18:43;;;;;;;;;;;;;;;10.58;100.00;102582.72;5026643;28;19925;-71
2023/10/04 06:21:09;;;;;;;;;;;;;;;10.64;100.00;102578.84;5005964;28;19971;-71
2023/10/04 06:23:36;;;;;;;;;;;;;;;10.66;100.00;102590.38;5022747;28;19960;-70
2023/10/04 06:26:01;;;;;;;;;;;;;;;10.66;100.00;102585.00;5008279;28;20450;-70
2023/10/04 06:28:26;;;;;;;;;;;;;;;10.75;100.00;102583.69;5019781;28;20058;-71
2023/10/04 06:30:53;;;;;;;;;;;;;;;10.83;100.00;102592.22;5003935;28;19982;-70
2023/10/04 06:33:18;;;;;;;;;;;;;;;10.82;100.00;102592.28;5009466;28;20087;-70
2023/10/04 06:35:44;;;;;;;;;;;;;;;10.85;100.00;102597.50;5020949;28;19926;-70
2023/10/04 06:38:10;;;;;;;;;;;;;;;10.91;100.00;102594.50;4990809;28;19924;-71
2023/10/04 06:40:35;;;;;;;;;;;;;;;10.91;100.00;102590.00;5019212;28;19925;-70
2023/10/04 06:43:04;;;;;;;;;;;;;;;10.96;100.00;102597.84;5007644;28;20409;-70
2023/10/04 06:45:29;;;;;;;;;;;;;;;11.02;100.00;102604.72;5006274;28;20282;-71
2023/10/04 06:47:55;;;;;;;;;;;;;;;11.07;100.00;102587.38;5026190;28;19916;-70
2023/10/04 06:50:21;;;;;;;;;;;;;;;11.16;100.00;102601.31;5027168;28;19928;-70
2023/10/04 06:52:48;;;;;;;;;;;;;;;11.19;100.00;102602.00;5014370;28;20027;-71
2023/10/04 06:55:13;;;;;;;;;;;;;;;11.25;100.00;102606.22;5004273;28;19921;-70
2023/10/04 06:57:42;;;;;;;;;;;;;;;11.32;100.00;102601.38;5015553;28;19927;-70
2023/10/04 07:00:14;;;;;;;;;;;;;;;11.35;100.00;102603.91;5021709;28;20342;-70
2023/10/04 07:02:40;;;;;;;;;;;;;;;11.46;100.00;102600.63;5022784;28;19920;-70
2023/10/04 07:05:06;;;;;;;;;;;;;;;11.50;100.00;102597.69;5021706;28;19921;-70
2023/10/04 07:07:31;;;;;;;;;;;;;;;11.55;100.00;102600.13;5020052;28;19928;-70
2023/10/04 07:09:57;;;;;;;;;;;;;;;11.65;100.00;102606.75;5019304;28;20270;-70
2023/10/04 07:12:22;;;;;;;;;;;;;;;11.75;100.00;102614.34;5024829;28;19963;-70
2023/10/04 07:14:47;;;;;;;;;;;;;;;11.85;100.00;102618.25;5025102;28;19925;-70
2023/10/04 07:17:14;;;;;;;;;;;;;;;11.89;100.00;102616.28;5020753;28;19929;-70
2023/10/04 07:19:40;;;;;;;;;;;;;;;11.91;100.00;102619.75;5022726;28;20355;-70
2023/10/04 07:22:05;;;;;;;;;;;;;;;11.96;100.00;102615.84;5025626;28;19923;-71
2023/10/04 07:24:32;;;;;;;;;;;;;;;12.00;100.00;102611.19;5034827;28;19920;-72
2023/10/04 07:26:58;;;;;;;;;;;;;;;12.14;100.00;102621.19;5012011;28;19924;-71
2023/10/04 07:29:23;;;;;;;;;;;;;;;12.20;100.00;102623.53;5015193;28;20608;-71
2023/10/04 07:31:50;;;;;;;;;;;;;;;12.26;100.00;102623.19;5017772;28;19928;-70
2023/10/04 07:34:16;;;;;;;;;;;;;;;12.41;100.00;102628.66;5024949;28;19956;-70
2023/10/04 07:36:42;;;;;;;;;;;;;;;12.56;100.00;102627.78;5028513;28;20011;-71
2023/10/04 07:39:07;;;;;;;;;;;;;;;12.67;100.00;102628.97;5029358;28;19976;-70
2023/10/04 07:41:33;;;;;;;;;;;;;;;12.73;100.00;102631.31;5014512;28;19968;-71
2023/10/04 07:43:59;;;;;;;;;;;;;;;12.69;100.00;102608.19;5028075;28;19948;-70
2023/10/04 07:46:25;;;;;;;;;;;;;;;12.95;100.00;102627.34;5030364;28;19920;-71
2023/10/04 07:48:50;;;;;;;;;;;;;;;12.99;100.00;102634.28;5015179;28;20054;-71
2023/10/04 07:51:15;;;;;;;;;;;;;;;12.96;100.00;102613.78;5024530;28;19940;-69
2023/10/04 07:53:42;;;;;;;;;;;;;;;13.20;100.00;102632.16;5015391;28;19921;-72
2023/10/04 07:56:09;;;;;;;;;;;;;;;13.31;100.00;102639.59;5012904;28;20008;-70
2023/10/04 07:58:34;;;;;;;;;;;;;;;13.31;100.00;102637.75;5007871;28;19929;-71
2023/10/04 08:00:59;;;;;;;;;;;;;;;13.44;100.00;102634.34;5032066;28;19917;-72
2023/10/04 08:03:26;;;;;;;;;;;;;;;13.24;100.00;102635.50;5009239;28;19928;-70
2023/10/04 08:05:51;;;;;;;;;;;;;;;13.32;100.00;102649.41;5026699;28;19979;-72
2023/10/04 08:08:16;;;;;;;;;;;;;;;13.51;100.00;102651.88;5024002;28;20294;-70
2023/10/04 08:10:41;;;;;;;;;;;;;;;13.70;100.00;102646.19;5027491;28;20335;-70
2023/10/04 08:13:07;;;;;;;;;;;;;;;13.89;100.00;102647.75;5010714;28;19984;-71
2023/10/04 08:15:32;;;;;;;;;;;;;;;13.90;100.00;102652.19;5027276;28;20015;-70
2023/10/04 08:17:58;;;;;;;;;;;;;;;13.96;100.00;102638.28;5030095;28;19925;-70
2023/10/04 08:20:24;;;;;;;;;;;;;;;14.05;100.00;102647.63;5028980;28;20363;-70
2023/10/04 08:22:50;;;;;;;;;;;;;;;14.16;100.00;102642.41;5031066;28;19920;-69
2023/10/04 08:25:16;;;;;;;;;;;;;;;14.09;100.00;102644.66;5025065;28;19939;-73
2023/10/04 08:27:41;;;;;;;;;;;;;;;14.15;100.00;102648.78;5027489;28;19925;-70
2023/10/04 08:30:07;;;;;;;;;;;;;;;14.28;100.00;102648.00;5030780;28;20010;-70
2023/10/04 08:32:33;;;;;;;;;;;;;;;14.35;100.00;102649.31;5028155;28;20524;-71
2023/10/04 08:34:59;;;;;;;;;;;;;;;14.29;100.00;102653.28;5030149;28;19927;-71
2023/10/04 08:37:24;;;;;;;;;;;;;;;14.32;100.00;102653.09;5023342;28;20750;-70
2023/10/04 08:39:50;;;;;;;;;;;;;;;14.50;100.00;102651.03;5025834;28;19921;-71
2023/10/04 08:42:15;;;;;;;;;;;;;;;14.79;100.00;102660.91;5026160;28;20020;-71
2023/10/04 08:44:40;;;;;;;;;;;;;;;14.97;100.00;102651.53;5032091;28;20735;-70
2023/10/04 08:47:06;;;;;;;;;;;;;;;15.13;100.00;102659.47;5026855;28;20425;-70
2023/10/04 08:49:34;;;;;;;;;;;;;;;14.84;100.00;102651.50;5031437;28;20015;-70
2023/10/04 08:52:02;;;;;;;;;;;;;;;14.82;100.00;102661.56;5015495;28;19963;-71
2023/10/04 08:54:28;;;;;;;;;;;;;;;14.56;100.00;102663.25;5003110;28;19948;-71
2023/10/04 08:56:57;;;;;;;;;;;;;;;14.54;100.00;102659.78;5025535;28;20005;-72
2023/10/04 08:59:24;;;;;;;;;;;;;;;14.70;100.00;102651.56;5029830;28;19990;-71
2023/10/04 09:01:50;;;;;;;;;;;;;;;14.75;100.00;102653.97;5024895;28;20260;-70
2023/10/04 09:04:15;;;;;;;;;;;;;;;14.91;100.00;102651.97;5007768;28;19958;-70
2023/10/04 09:06:42;;;;;;;;;;;;;;;14.91;100.00;102657.38;5008269;28;20313;-75
2023/10/04 09:09:11;;;;;;;;;;;;;;;14.96;100.00;102648.94;5028233;28;20472;-70
2023/10/04 09:11:37;;;;;;;;;;;;;;;14.99;100.00;102652.28;5023276;28;20293;-70
2023/10/04 09:14:03;;;;;;;;;;;;;;;14.95;100.00;102653.50;5026986;28;20407;-70
2023/10/04 09:16:28;;;;;;;;;;;;;;;15.29;100.00;102653.03;5010072;28;20497;-69
2023/10/04 09:19:09;;;;;;;;;;;;;;;15.32;100.00;102646.53;5009460;28;19929;-71
2023/10/04 09:21:38;;;;;;;;;;;;;;;15.21;100.00;102642.75;5021450;28;20437;-69
2023/10/04 09:24:05;;;;;;;;;;;;;;;14.96;100.00;102655.22;5014172;28;20902;-71
2023/10/04 09:26:30;;;;;;;;;;;;;;;14.95;100.00;102648.09;5029665;28;19928;-71
2023/10/04 09:28:55;;;;;;;;;;;;;;;15.16;100.00;102647.59;5029559;28;19920;-71
2023/10/04 09:31:20;;;;;;;;;;;;;;;15.34;100.00;102641.88;5024843;28;19921;-70
2023/10/04 09:33:46;;;;;;;;;;;;;;;15.22;100.00;102640.88;5025199;28;19986;-70
2023/10/04 09:36:11;;;;;;;;;;;;;;;15.27;100.00;102636.88;5031321;28;19921;-71
2023/10/04 09:38:36;;;;;;;;;;;;;;;15.23;100.00;102632.66;5026508;28;20302;-70
2023/10/04 09:41:02;;;;;;;;;;;;;;;15.15;100.00;102635.03;5030583;28;19973;-71
2023/10/04 09:43:35;;;;;;;;;;;;;;;15.40;100.00;102645.00;5031491;28;19931;-70
2023/10/04 09:46:00;;;;;;;;;;;;;;;15.59;100.00;102641.03;5010973;28;19921;-70
2023/10/04 09:48:33;;;;;;;;;;;;;;;15.45;100.00;102645.56;5010607;28;19948;-70
2023/10/04 09:51:00;;;;;;;;;;;;;;;15.29;100.00;102647.63;5026275;28;19931;-72
2023/10/04 09:53:25;;;;;;;;;;;;;;;15.51;100.00;102638.84;5024069;28;19960;-71
2023/10/04 09:55:50;;;;;;;;;;;;;;;15.29;100.00;102634.94;5026824;28;20357;-70
2023/10/04 09:58:15;;;;;;;;;;;;;;;15.56;100.00;102654.78;5023377;28;20071;-70
2023/10/04 10:00:41;;;;;;;;;;;;;;;15.48;100.00;102657.16;5021672;28;19952;-72
2023/10/04 10:03:06;;;;;;;;;;;;;;;15.66;100.00;102646.88;5029266;28;20046;-72
2023/10/04 10:05:31;;;;;;;;;;;;;;;15.39;100.00;102648.69;5025661;28;19960;-71
2023/10/04 10:08:04;;;;;;;;;;;;;;;15.64;100.00;102654.22;5025559;28;20032;-71
2023/10/04 10:10:30;;;;;;;;;;;;;;;15.81;100.00;102648.47;5025158;28;19924;-70
2023/10/04 10:12:55;;;;;;;;;;;;;;;16.29;100.00;102661.31;5026274;28;20341;-70
2023/10/04 10:15:21;;;;;;;;;;;;;;;16.37;100.00;102649.91;5007275;28;20434;-70
2023/10/04 10:17:46;;;;;;;;;;;;;;;16.72;100.00;102653.66;5023306;28;20418;-70
2023/10/04 10:20:12;;;;;;;;;;;;;;;16.97;100.00;102658.13;5008124;28;20241;-70
2023/10/04 10:22:57;;;;;;;;;;;;;;;17.08;100.00;102662.72;5012743;28;19928;-70
2023/10/04 10:25:23;;;;;;;;;;;;;;;17.39;100.00;102658.50;5028710;28;19920;-69
2023/10/04 10:27:48;;;;;;;;;;;;;;;17.43;100.00;102661.84;5021670;28;19921;-71
2023/10/04 10:30:16;;;;;;;;;;;;;;;17.28;100.00;102665.75;5028515;28;19917;-70
2023/10/04 10:32:54;;;;;;;;;;;;;;;17.40;100.00;102659.38;5017140;28;19921;-70
2023/10/04 10:35:40;;;;;;;;;;;;;;;17.63;100.00;102657.53;5026149;28;19936;-70
2023/10/04 10:38:24;;;;;;;;;;;;;;;17.71;100.00;102648.81;5016566;28;20379;-71
2023/10/04 10:40:49;;;;;;;;;;;;;;;17.89;100.00;102642.88;5022485;28;19929;-72
2023/10/04 10:43:14;;;;;;;;;;;;;;;18.03;100.00;102653.50;5028088;28;20263;-71
2023/10/04 10:45:41;;;;;;;;;;;;;;;17.93;100.00;102647.94;5023175;28;19968;-71
2023/10/04 10:48:08;;;;;;;;;;;;;;;18.28;100.00;102637.91;5026496;28;20269;-71
2023/10/04 10:50:40;;;;;;;;;;;;;;;18.54;100.00;102637.63;5025751;28;19925;-70
2023/10/04 10:53:05;;;;;;;;;;;;;;;18.24;100.00;102639.19;5026686;28;20307;-72
2023/10/04 10:55:32;;;;;;;;;;;;;;;18.03;100.00;102649.94;5021867;28;19928;-72
2023/10/04 10:57:57;;;;;;;;;;;;;;;17.98;100.00;102634.88;5028187;28;19929;-71
2023/10/04 11:00:23;;;;;;;;;;;;;;;18.11;100.00;102632.00;5026278;28;19936;-72
2023/10/04 11:02:53;;;;;;;;;;;;;;;18.51;100.00;102637.88;5033286;28;20999;-71
2023/10/04 11:05:20;;;;;;;;;;;;;;;18.88;100.00;102632.91;5029075;28;20143;-71
2023/10/04 11:07:46;;;;;;;;;;;;;;;18.63;100.00;102633.25;5032114;28;20116;-71
2023/10/04 11:10:12;;;;;;;;;;;;;;;17.95;100.00;102636.94;5012188;28;19932;-71
2023/10/04 11:12:42;;;;;;;;;;;;;;;17.66;100.00;102626.56;5027481;28;19928;-71
2023/10/04 11:15:07;;;;;;;;;;;;;;;17.70;100.00;102625.34;5029463;28;20469;-72
2023/10/04 11:17:35;;;;;;;;;;;;;;;18.18;100.00;102618.78;5036297;28;20019;-72
2023/10/04 11:20:03;;;;;;;;;;;;;;;18.23;100.00;102616.53;5030464;28;20095;-73
2023/10/04 11:22:28;;;;;;;;;;;;;;;18.40;100.00;102609.72;5027155;28;19925;-71
2023/10/04 11:24:54;;;;;;;;;;;;;;;17.91;100.00;102613.72;5026479;28;19928;-73
2023/10/04 11:27:21;;;;;;;;;;;;;;;18.18;100.00;102613.34;5032532;28;19982;-74
2023/10/04 11:29:46;;;;;;;;;;;;;;;17.97;100.00;102605.94;5033511;28;19962;-72
2023/10/04 11:32:11;;;;;;;;;;;;;;;18.65;100.00;102609.50;5031825;28;19999;-72
2023/10/04 11:34:37;;;;;;;;;;;;;;;18.52;100.00;102606.97;5030814;28;19920;-71
2023/10/04 11:37:02;;;;;;;;;;;;;;;18.97;100.00;102601.34;5034102;28;19960;-71
2023/10/04 11:39:33;;;;;;;;;;;;;;;19.53;100.00;102601.97;5029143;28;20000;-71
2023/10/04 11:41:59;;;;;;;;;;;;;;;19.27;100.00;102598.81;5036548;28;20059;-70
2023/10/04 11:44:24;;;;;;;;;;;;;;;19.51;100.00;102598.50;5031415;28;19951;-71
2023/10/04 11:46:55;;;;;;;;;;;;;;;19.16;100.00;102591.56;5033172;28;20351;-71
2023/10/04 11:49:21;;;;;;;;;;;;;;;19.66;100.00;102590.84;5032016;28;19986;-71
2023/10/04 11:51:47;;;;;;;;;;;;;;;19.27;100.00;102588.78;5025824;28;20249;-71
2023/10/04 11:54:12;;;;;;;;;;;;;;;19.37;100.00;102568.91;5030730;28;19912;-71
2023/10/04 11:56:38;;;;;;;;;;;;;;;18.41;100.00;102584.25;5027235;28;19921;-73
2023/10/04 11:59:04;;;;;;;;;;;;;;;18.09;100.00;102568.75;5029794;28;20014;-71
2023/10/04 12:01:29;;;;;;;;;;;;;;;18.79;100.00;102581.13;5031672;28;19978;-70
2023/10/04 12:03:55;;;;;;;;;;;;;;;18.65;100.00;102580.44;5027796;28;20007;-71
2023/10/04 12:06:24;;;;;;;;;;;;;;;18.51;100.00;102570.72;5021269;28;19928;-71
2023/10/04 12:08:49;;;;;;;;;;;;;;;18.66;100.00;102571.28;5030814;28;19931;-71
2023/10/04 12:11:21;;;;;;;;;;;;;;;18.74;100.00;102576.06;5028973;28;19920;-70
2023/10/04 12:13:46;;;;;;;;;;;;;;;17.97;100.00;102567.03;5024454;28;19952;-71
2023/10/04 12:16:13;;;;;;;;;;;;;;;17.91;100.00;102568.38;5032190;28;20349;-71
2023/10/04 12:18:38;;;;;;;;;;;;;;;18.06;100.00;102576.31;5008882;28;19960;-71
2023/10/04 12:21:03;;;;;;;;;;;;;;;18.02;100.00;102566.69;5010368;28;20419;-71
2023/10/04 12:23:30;;;;;;;;;;;;;;;18.21;100.00;102566.03;5008165;28;20378;-71
2023/10/04 12:25:55;;;;;;;;;;;;;;;18.06;100.00;102569.00;5027816;28;20442;-71